To NAV CANADA Home Page Login to a new session Search on AWWS site Feedback and Comments Disclaimer Vers la page française équivalente Tips FAQ What's new on the site To the Forecasts and Observations / NOTAM section To "File a Flight Plan" website Publications and other links Update of the User's profile FIC Telephone Numbers My Weather Data Folder Route Weather Data Regional Weather Data Local Weather Data To the Forecasts and Observations / NOTAM section
Request Generated 08/22/2017 at 03:33:11 UTC . Weather information available at that time is displayed.

METAR/TAF

CALGARY/SPRINGBANK/AB    (show WxCam)

METAR CYBW 220300Z AUTO 12003KT 050V150 9SM CLR 17/05 A3014 RMK
SLP214 DENSITY ALT 4800FT=
METAR CYBW 220200Z AUTO 15004KT 9SM CLR 18/07 A3013 RMK SLP219
DENSITY ALT 4800FT=
METAR CYBW 220100Z AUTO 15008KT 9SM FEW090 21/06 A3013 RMK SLP217
DENSITY ALT 5200FT=

TAF CYBW 212340Z 2200/2204 13008KT P6SM BKN090
RMK FCST BASED ON AUTO OBS. NXT FCST WILL BE ISSUED AT 221145Z=
Your time UTC time
Weather data provided by Environment Canada and NAV CANADA